sensor_id;sensor_type;location;lat;lon;timestamp;pressure;altitude;pressure_sealevel;temperature;humidity
59787;BME280;45672;51.612;5.536;2023-02-26T00:01:35;101649.03;;;0.00;87.25
59787;BME280;45672;51.612;5.536;2023-02-26T00:04:03;101649.88;;;0.01;87.59
59787;BME280;45672;51.612;5.536;2023-02-26T00:06:32;101643.72;;;0.02;88.58
59787;BME280;45672;51.612;5.536;2023-02-26T00:08:58;101654.59;;;0.11;88.55
59787;BME280;45672;51.612;5.536;2023-02-26T00:11:23;101665.03;;;0.13;87.79
59787;BME280;45672;51.612;5.536;2023-02-26T00:13:49;101660.63;;;0.13;88.13
59787;BME280;45672;51.612;5.536;2023-02-26T00:18:48;101667.59;;;0.14;88.20
59787;BME280;45672;51.612;5.536;2023-02-26T00:21:16;101652.66;;;0.16;88.91
59787;BME280;45672;51.612;5.536;2023-02-26T00:23:42;101660.19;;;0.24;89.67
59787;BME280;45672;51.612;5.536;2023-02-26T00:26:08;101667.69;;;0.32;88.92
59787;BME280;45672;51.612;5.536;2023-02-26T00:28:34;101668.34;;;0.37;88.79
59787;BME280;45672;51.612;5.536;2023-02-26T00:30:59;101671.56;;;0.42;89.37
59787;BME280;45672;51.612;5.536;2023-02-26T00:33:25;101667.84;;;0.48;89.33
59787;BME280;45672;51.612;5.536;2023-02-26T00:35:55;101675.34;;;0.56;90.47
59787;BME280;45672;51.612;5.536;2023-02-26T00:38:25;101683.06;;;0.59;88.97
59787;BME280;45672;51.612;5.536;2023-02-26T00:40:53;101683.84;;;0.61;89.65
59787;BME280;45672;51.612;5.536;2023-02-26T00:43:22;101696.94;;;0.61;88.45
59787;BME280;45672;51.612;5.536;2023-02-26T00:51:20;101694.88;;;0.48;88.62
59787;BME280;45672;51.612;5.536;2023-02-26T00:54:29;101700.38;;;0.42;88.89
59787;BME280;45672;51.612;5.536;2023-02-26T00:56:56;101695.69;;;0.30;89.16
59787;BME280;45672;51.612;5.536;2023-02-26T00:59:22;101701.19;;;0.24;89.49
59787;BME280;45672;51.612;5.536;2023-02-26T01:01:48;101704.84;;;0.20;90.57
59787;BME280;45672;51.612;5.536;2023-02-26T01:04:17;101701.53;;;0.16;90.90
59787;BME280;45672;51.612;5.536;2023-02-26T01:06:46;101718.06;;;0.16;91.21
59787;BME280;45672;51.612;5.536;2023-02-26T01:09:33;101733.63;;;0.20;90.92
59787;BME280;45672;51.612;5.536;2023-02-26T01:12:04;101711.94;;;0.17;90.34
59787;BME280;45672;51.612;5.536;2023-02-26T01:14:32;101713.66;;;0.19;91.14
59787;BME280;45672;51.612;5.536;2023-02-26T01:20:20;101722.84;;;0.07;90.92
59787;BME280;45672;51.612;5.536;2023-02-26T01:22:53;101723.19;;;-0.01;90.97
59787;BME280;45672;51.612;5.536;2023-02-26T01:25:48;101723.31;;;-0.04;90.23
59787;BME280;45672;51.612;5.536;2023-02-26T01:28:14;101713.97;;;-0.10;91.47
59787;BME280;45672;51.612;5.536;2023-02-26T01:30:40;101712.41;;;-0.14;90.43
59787;BME280;45672;51.612;5.536;2023-02-26T01:33:12;101712.56;;;-0.19;91.32
59787;BME280;45672;51.612;5.536;2023-02-26T01:35:46;101722.25;;;-0.21;92.08
59787;BME280;45672;51.612;5.536;2023-02-26T01:41:32;101728.44;;;-0.23;91.01
59787;BME280;45672;51.612;5.536;2023-02-26T01:49:30;101733.28;;;-0.35;91.14
59787;BME280;45672;51.612;5.536;2023-02-26T01:52:04;101726.53;;;-0.40;90.71
59787;BME280;45672;51.612;5.536;2023-02-26T01:54:37;101742.00;;;-0.34;91.16
59787;BME280;45672;51.612;5.536;2023-02-26T01:57:04;101742.16;;;-0.39;89.19
59787;BME280;45672;51.612;5.536;2023-02-26T01:59:32;101745.88;;;-0.44;90.96
59787;BME280;45672;51.612;5.536;2023-02-26T02:02:00;101755.47;;;-0.45;90.19
59787;BME280;45672;51.612;5.536;2023-02-26T02:04:27;101752.75;;;-0.42;89.24
59787;BME280;45672;51.612;5.536;2023-02-26T02:06:53;101757.19;;;-0.44;89.35
59787;BME280;45672;51.612;5.536;2023-02-26T02:09:19;101767.78;;;-0.47;89.43
59787;BME280;45672;51.612;5.536;2023-02-26T02:14:37;101767.72;;;-0.45;89.74
59787;BME280;45672;51.612;5.536;2023-02-26T02:28:17;101786.97;;;-0.48;88.34
59787;BME280;45672;51.612;5.536;2023-02-26T02:33:18;101794.06;;;-0.52;88.52
59787;BME280;45672;51.612;5.536;2023-02-26T02:35:53;101794.13;;;-0.53;89.60
59787;BME280;45672;51.612;5.536;2023-02-26T02:38:27;101786.22;;;-0.52;88.41
59787;BME280;45672;51.612;5.536;2023-02-26T02:41:05;101784.66;;;-0.56;88.57
59787;BME280;45672;51.612;5.536;2023-02-26T02:43:33;101797.00;;;-0.59;87.97
59787;BME280;45672;51.612;5.536;2023-02-26T02:46:16;101795.28;;;-0.60;87.80
59787;BME280;45672;51.612;5.536;2023-02-26T02:48:47;101797.13;;;-0.62;89.19
59787;BME280;45672;51.612;5.536;2023-02-26T02:51:36;101794.59;;;-0.65;88.84
59787;BME280;45672;51.612;5.536;2023-02-26T02:54:15;101809.56;;;-0.69;88.67
59787;BME280;45672;51.612;5.536;2023-02-26T02:56:46;101804.53;;;-0.74;88.26
59787;BME280;45672;51.612;5.536;2023-02-26T02:59:27;101807.34;;;-0.80;89.47
59787;BME280;45672;51.612;5.536;2023-02-26T03:02:03;101803.97;;;-0.82;89.86
59787;BME280;45672;51.612;5.536;2023-02-26T03:04:31;101818.78;;;-0.82;89.15
59787;BME280;45672;51.612;5.536;2023-02-26T03:06:57;101809.38;;;-0.87;89.35
59787;BME280;45672;51.612;5.536;2023-02-26T03:09:22;101813.72;;;-0.87;89.21
59787;BME280;45672;51.612;5.536;2023-02-26T03:11:48;101815.53;;;-0.89;88.76
59787;BME280;45672;51.612;5.536;2023-02-26T03:14:14;101820.91;;;-0.92;89.44
59787;BME280;45672;51.612;5.536;2023-02-26T03:17:04;101831.50;;;-0.97;89.99
59787;BME280;45672;51.612;5.536;2023-02-26T03:25:08;101833.09;;;-0.93;91.25
59787;BME280;45672;51.612;5.536;2023-02-26T03:27:52;101835.03;;;-0.98;91.10
59787;BME280;45672;51.612;5.536;2023-02-26T03:36:11;101847.16;;;-0.97;91.58
59787;BME280;45672;51.612;5.536;2023-02-26T03:38:47;101859.50;;;-1.00;91.65
59787;BME280;45672;51.612;5.536;2023-02-26T03:41:19;101859.56;;;-1.02;91.29
59787;BME280;45672;51.612;5.536;2023-02-26T03:44:00;101862.38;;;-1.08;91.25
59787;BME280;45672;51.612;5.536;2023-02-26T03:46:34;101865.03;;;-1.10;91.40
59787;BME280;45672;51.612;5.536;2023-02-26T03:49:11;101870.31;;;-1.11;91.54
59787;BME280;45672;51.612;5.536;2023-02-26T03:51:37;101867.81;;;-1.14;90.18
59787;BME280;45672;51.612;5.536;2023-02-26T03:54:09;101867.94;;;-1.17;90.62
59787;BME280;45672;51.612;5.536;2023-02-26T03:56:43;101876.00;;;-1.24;90.55
59787;BME280;45672;51.612;5.536;2023-02-26T03:59:10;101875.06;;;-1.23;91.27
59787;BME280;45672;51.612;5.536;2023-02-26T04:01:42;101877.66;;;-1.23;90.96
59787;BME280;45672;51.612;5.536;2023-02-26T04:04:14;101877.78;;;-1.26;91.22
59787;BME280;45672;51.612;5.536;2023-02-26T04:06:42;101875.16;;;-1.26;92.90
59787;BME280;45672;51.612;5.536;2023-02-26T04:09:08;101882.13;;;-1.25;91.27
59787;BME280;45672;51.612;5.536;2023-02-26T04:11:34;101881.25;;;-1.25;92.83
59787;BME280;45672;51.612;5.536;2023-02-26T04:14:00;101890.91;;;-1.27;91.08
59787;BME280;45672;51.612;5.536;2023-02-26T04:16:25;101888.34;;;-1.29;92.09
59787;BME280;45672;51.612;5.536;2023-02-26T04:18:51;101880.56;;;-1.30;91.45
59787;BME280;45672;51.612;5.536;2023-02-26T04:21:20;101891.06;;;-1.32;91.16
59787;BME280;45672;51.612;5.536;2023-02-26T04:23:45;101898.06;;;-1.34;90.18
59787;BME280;45672;51.612;5.536;2023-02-26T04:26:11;101895.63;;;-1.39;90.05
59787;BME280;45672;51.612;5.536;2023-02-26T04:28:37;101901.97;;;-1.46;89.94
59787;BME280;45672;51.612;5.536;2023-02-26T04:31:04;101910.63;;;-1.45;88.97
59787;BME280;45672;51.612;5.536;2023-02-26T04:33:30;101915.06;;;-1.47;90.34
59787;BME280;45672;51.612;5.536;2023-02-26T04:35:56;101912.41;;;-1.46;91.74
59787;BME280;45672;51.612;5.536;2023-02-26T04:38:22;101918.38;;;-1.42;89.87
59787;BME280;45672;51.612;5.536;2023-02-26T04:40:48;101919.28;;;-1.43;90.44
59787;BME280;45672;51.612;5.536;2023-02-26T04:43:14;101922.06;;;-1.48;88.63
59787;BME280;45672;51.612;5.536;2023-02-26T04:45:39;101925.50;;;-1.47;89.74
59787;BME280;45672;51.612;5.536;2023-02-26T04:48:05;101918.56;;;-1.48;91.07
59787;BME280;45672;51.612;5.536;2023-02-26T04:50:30;101926.25;;;-1.44;89.95
59787;BME280;45672;51.612;5.536;2023-02-26T04:52:55;101936.75;;;-1.45;88.36
59787;BME280;45672;51.612;5.536;2023-02-26T04:55:21;101934.28;;;-1.50;88.21
59787;BME280;45672;51.612;5.536;2023-02-26T04:57:46;101932.53;;;-1.49;89.07
59787;BME280;45672;51.612;5.536;2023-02-26T05:00:12;101939.56;;;-1.51;89.97
59787;BME280;45672;51.612;5.536;2023-02-26T05:02:37;101944.78;;;-1.51;87.86
59787;BME280;45672;51.612;5.536;2023-02-26T05:05:03;101950.78;;;-1.49;87.45
59787;BME280;45672;51.612;5.536;2023-02-26T05:07:28;101952.78;;;-1.56;88.55
59787;BME280;45672;51.612;5.536;2023-02-26T05:09:53;101958.81;;;-1.56;87.34
59787;BME280;45672;51.612;5.536;2023-02-26T05:12:19;101960.69;;;-1.59;87.64
59787;BME280;45672;51.612;5.536;2023-02-26T05:14:44;101952.09;;;-1.63;89.34
59787;BME280;45672;51.612;5.536;2023-02-26T05:17:09;101954.72;;;-1.63;89.53
59787;BME280;45672;51.612;5.536;2023-02-26T05:19:35;101957.44;;;-1.66;86.94
59787;BME280;45672;51.612;5.536;2023-02-26T05:22:00;101965.41;;;-1.70;87.44
59787;BME280;45672;51.612;5.536;2023-02-26T05:24:25;101961.13;;;-1.73;87.89
59787;BME280;45672;51.612;5.536;2023-02-26T05:26:51;101959.41;;;-1.74;87.79
59787;BME280;45672;51.612;5.536;2023-02-26T05:29:16;101968.09;;;-1.74;87.71
59787;BME280;45672;51.612;5.536;2023-02-26T05:31:41;101968.13;;;-1.75;87.88
59787;BME280;45672;51.612;5.536;2023-02-26T05:34:06;101979.53;;;-1.78;89.07
59787;BME280;45672;51.612;5.536;2023-02-26T05:36:32;101974.31;;;-1.78;88.65
59787;BME280;45672;51.612;5.536;2023-02-26T05:38:57;101974.44;;;-1.82;87.65
59787;BME280;45672;51.612;5.536;2023-02-26T05:41:22;101971.00;;;-1.83;86.92
59787;BME280;45672;51.612;5.536;2023-02-26T05:43:48;101973.69;;;-1.86;88.77
59787;BME280;45672;51.612;5.536;2023-02-26T05:46:13;101983.03;;;-1.79;86.96
59787;BME280;45672;51.612;5.536;2023-02-26T05:48:38;101980.59;;;-1.83;87.67
59787;BME280;45672;51.612;5.536;2023-02-26T05:51:05;101981.56;;;-1.87;87.53
59787;BME280;45672;51.612;5.536;2023-02-26T05:53:30;101984.09;;;-1.84;86.95
59787;BME280;45672;51.612;5.536;2023-02-26T05:55:55;101988.53;;;-1.88;86.83
59787;BME280;45672;51.612;5.536;2023-02-26T05:58:21;101989.34;;;-1.86;86.79
59787;BME280;45672;51.612;5.536;2023-02-26T06:00:46;101994.69;;;-1.91;86.01
59787;BME280;45672;51.612;5.536;2023-02-26T06:03:11;102005.06;;;-1.87;86.61
59787;BME280;45672;51.612;5.536;2023-02-26T06:05:37;102003.25;;;-1.85;86.44
59787;BME280;45672;51.612;5.536;2023-02-26T06:08:03;102015.34;;;-1.83;86.25
59787;BME280;45672;51.612;5.536;2023-02-26T06:10:29;102015.44;;;-1.86;86.66
59787;BME280;45672;51.612;5.536;2023-02-26T06:12:54;102015.44;;;-1.86;86.90
59787;BME280;45672;51.612;5.536;2023-02-26T06:15:19;102018.00;;;-1.84;86.06
59787;BME280;45672;51.612;5.536;2023-02-26T06:17:44;102024.78;;;-1.79;86.17
59787;BME280;45672;51.612;5.536;2023-02-26T06:20:11;102024.84;;;-1.80;86.35
59787;BME280;45672;51.612;5.536;2023-02-26T06:22:36;102033.59;;;-1.83;85.40
59787;BME280;45672;51.612;5.536;2023-02-26T06:25:02;102032.81;;;-1.86;85.90
59787;BME280;45672;51.612;5.536;2023-02-26T06:27:27;102039.81;;;-1.87;85.65
59787;BME280;45672;51.612;5.536;2023-02-26T06:29:52;102039.75;;;-1.85;85.12
59787;BME280;45672;51.612;5.536;2023-02-26T06:32:18;102049.47;;;-1.91;85.65
59787;BME280;45672;51.612;5.536;2023-02-26T06:34:43;102059.94;;;-1.92;86.37
59787;BME280;45672;51.612;5.536;2023-02-26T06:37:08;102052.91;;;-1.88;85.21
59787;BME280;45672;51.612;5.536;2023-02-26T06:39:34;102062.50;;;-1.91;85.81
59787;BME280;45672;51.612;5.536;2023-02-26T06:41:59;102069.50;;;-1.91;85.68
59787;BME280;45672;51.612;5.536;2023-02-26T06:44:24;102062.66;;;-1.95;86.30
59787;BME280;45672;51.612;5.536;2023-02-26T06:46:50;102063.47;;;-1.93;85.63
59787;BME280;45672;51.612;5.536;2023-02-26T06:49:15;102089.28;;;-1.84;85.10
59787;BME280;45672;51.612;5.536;2023-02-26T06:51:40;102087.69;;;-1.89;85.65
59787;BME280;45672;51.612;5.536;2023-02-26T06:54:06;102085.00;;;-1.86;85.47
59787;BME280;45672;51.612;5.536;2023-02-26T06:56:31;102094.59;;;-1.87;85.16
59787;BME280;45672;51.612;5.536;2023-02-26T06:58:56;102100.66;;;-1.86;84.92
59787;BME280;45672;51.612;5.536;2023-02-26T07:01:22;102107.44;;;-1.81;84.20
59787;BME280;45672;51.612;5.536;2023-02-26T07:03:48;102109.25;;;-1.83;84.71
59787;BME280;45672;51.612;5.536;2023-02-26T07:06:13;102119.56;;;-1.78;84.43
59787;BME280;45672;51.612;5.536;2023-02-26T07:08:39;102114.25;;;-1.75;85.28
59787;BME280;45672;51.612;5.536;2023-02-26T07:11:04;102124.53;;;-1.69;84.80
59787;BME280;45672;51.612;5.536;2023-02-26T07:13:30;102132.97;;;-1.61;84.24
59787;BME280;45672;51.612;5.536;2023-02-26T07:15:56;102130.34;;;-1.59;84.93
59787;BME280;45672;51.612;5.536;2023-02-26T07:18:21;102137.25;;;-1.58;85.61
59787;BME280;45672;51.612;5.536;2023-02-26T07:20:49;102147.38;;;-1.47;85.81
59787;BME280;45672;51.612;5.536;2023-02-26T07:23:15;102150.59;;;-1.37;83.53
59787;BME280;45672;51.612;5.536;2023-02-26T07:25:40;102151.44;;;-1.37;84.54
59787;BME280;45672;51.612;5.536;2023-02-26T07:28:06;102157.91;;;-1.20;82.82
59787;BME280;45672;51.612;5.536;2023-02-26T07:30:31;102166.38;;;-1.14;84.30
59787;BME280;45672;51.612;5.536;2023-02-26T07:32:57;102169.59;;;-1.04;82.79
59787;BME280;45672;51.612;5.536;2023-02-26T07:35:22;102170.25;;;-0.97;82.98
59787;BME280;45672;51.612;5.536;2023-02-26T07:37:48;102172.53;;;-0.87;82.45
59787;BME280;45672;51.612;5.536;2023-02-26T07:40:13;102171.19;;;-0.72;83.36
59787;BME280;45672;51.612;5.536;2023-02-26T07:42:39;102176.25;;;-0.40;82.27
59787;BME280;45672;51.612;5.536;2023-02-26T07:45:05;102187.53;;;-0.11;81.17
59787;BME280;45672;51.612;5.536;2023-02-26T07:47:32;102188.22;;;-0.06;80.61
59787;BME280;45672;51.612;5.536;2023-02-26T07:49:58;102179.34;;;-0.02;79.90
59787;BME280;45672;51.612;5.536;2023-02-26T07:52:24;102182.97;;;-0.06;80.08
59787;BME280;45672;51.612;5.536;2023-02-26T07:54:49;102179.28;;;-0.01;79.86
59787;BME280;45672;51.612;5.536;2023-02-26T07:57:14;102189.53;;;0.06;79.65
59787;BME280;45672;51.612;5.536;2023-02-26T07:59:39;102188.69;;;0.05;79.11
59787;BME280;45672;51.612;5.536;2023-02-26T08:02:05;102190.13;;;0.14;78.89
59787;BME280;45672;51.612;5.536;2023-02-26T08:04:31;102191.56;;;0.23;78.97
59787;BME280;45672;51.612;5.536;2023-02-26T08:06:58;102195.91;;;0.47;78.60
59787;BME280;45672;51.612;5.536;2023-02-26T08:09:26;102195.13;;;0.69;77.30
59787;BME280;45672;51.612;5.536;2023-02-26T08:11:51;102198.63;;;0.92;76.85
59787;BME280;45672;51.612;5.536;2023-02-26T08:14:17;102199.31;;;1.19;76.91
59787;BME280;45672;51.612;5.536;2023-02-26T08:16:42;102194.66;;;1.48;74.26
59787;BME280;45672;51.612;5.536;2023-02-26T08:19:07;102205.00;;;1.73;73.35
59787;BME280;45672;51.612;5.536;2023-02-26T08:21:33;102202.78;;;2.26;72.72
59787;BME280;45672;51.612;5.536;2023-02-26T08:23:58;102214.72;;;2.91;68.63
59787;BME280;45672;51.612;5.536;2023-02-26T08:26:24;102219.38;;;3.04;67.40
59787;BME280;45672;51.612;5.536;2023-02-26T08:28:49;102216.88;;;3.39;66.23
59787;BME280;45672;51.612;5.536;2023-02-26T08:31:15;102219.19;;;3.45;66.53
59787;BME280;45672;51.612;5.536;2023-02-26T08:33:40;102230.03;;;3.39;65.83
59787;BME280;45672;51.612;5.536;2023-02-26T08:36:06;102229.88;;;3.42;66.15
59787;BME280;45672;51.612;5.536;2023-02-26T08:38:32;102241.28;;;3.60;67.66
59787;BME280;45672;51.612;5.536;2023-02-26T08:40:58;102237.19;;;3.89;63.93
59787;BME280;45672;51.612;5.536;2023-02-26T08:43:24;102228.56;;;4.38;63.62
59787;BME280;45672;51.612;5.536;2023-02-26T08:45:53;102242.97;;;4.82;60.93
59787;BME280;45672;51.612;5.536;2023-02-26T08:48:19;102245.09;;;5.39;58.46
59787;BME280;45672;51.612;5.536;2023-02-26T08:50:44;102251.00;;;6.50;55.70
59787;BME280;45672;51.612;5.536;2023-02-26T08:53:10;102260.63;;;7.36;53.97
59787;BME280;45672;51.612;5.536;2023-02-26T08:55:35;102265.28;;;8.00;51.46
59787;BME280;45672;51.612;5.536;2023-02-26T08:58:00;102264.66;;;8.99;50.00
59787;BME280;45672;51.612;5.536;2023-02-26T09:00:26;102270.94;;;9.59;46.74
59787;BME280;45672;51.612;5.536;2023-02-26T09:02:51;102271.22;;;10.03;44.49
59787;BME280;45672;51.612;5.536;2023-02-26T09:05:17;102278.41;;;10.14;43.89
59787;BME280;45672;51.612;5.536;2023-02-26T09:07:42;102278.06;;;10.30;41.87
59787;BME280;45672;51.612;5.536;2023-02-26T09:10:09;102292.81;;;10.69;44.08
59787;BME280;45672;51.612;5.536;2023-02-26T09:12:35;102291.50;;;11.53;40.86
59787;BME280;45672;51.612;5.536;2023-02-26T09:15:02;102292.22;;;11.55;39.17
59787;BME280;45672;51.612;5.536;2023-02-26T09:17:28;102299.81;;;12.03;38.36
59787;BME280;45672;51.612;5.536;2023-02-26T09:19:54;102301.72;;;11.80;37.62
59787;BME280;45672;51.612;5.536;2023-02-26T09:22:19;102298.97;;;12.03;40.19
59787;BME280;45672;51.612;5.536;2023-02-26T09:24:44;102303.72;;;12.20;36.15
59787;BME280;45672;51.612;5.536;2023-02-26T09:27:10;102307.88;;;11.81;37.32
59787;BME280;45672;51.612;5.536;2023-02-26T09:29:36;102311.09;;;12.28;37.82
59787;BME280;45672;51.612;5.536;2023-02-26T09:32:02;102306.56;;;12.71;36.81
59787;BME280;45672;51.612;5.536;2023-02-26T09:34:29;102312.34;;;12.76;35.18
59787;BME280;45672;51.612;5.536;2023-02-26T09:36:54;102326.31;;;12.16;35.79
59787;BME280;45672;51.612;5.536;2023-02-26T09:39:19;102334.66;;;12.23;35.53
59787;BME280;45672;51.612;5.536;2023-02-26T09:41:49;102333.13;;;12.09;35.98
59787;BME280;45672;51.612;5.536;2023-02-26T09:44:22;102338.94;;;11.70;36.70
59787;BME280;45672;51.612;5.536;2023-02-26T09:46:56;102337.09;;;11.82;37.08
59787;BME280;45672;51.612;5.536;2023-02-26T09:52:12;102329.06;;;11.94;35.82
59787;BME280;45672;51.612;5.536;2023-02-26T09:54:46;102346.38;;;10.18;36.75
59787;BME280;45672;51.612;5.536;2023-02-26T09:59:52;102344.03;;;9.28;39.37
59787;BME280;45672;51.612;5.536;2023-02-26T10:02:28;102358.72;;;10.30;37.46
59787;BME280;45672;51.612;5.536;2023-02-26T10:05:22;102369.13;;;10.58;38.02
59787;BME280;45672;51.612;5.536;2023-02-26T10:08:01;102362.97;;;9.23;39.08
59787;BME280;45672;51.612;5.536;2023-02-26T10:10:49;102367.66;;;8.15;40.49
59787;BME280;45672;51.612;5.536;2023-02-26T10:13:43;102366.28;;;6.97;42.76
59787;BME280;45672;51.612;5.536;2023-02-26T10:16:16;102366.84;;;6.13;43.07
59787;BME280;45672;51.612;5.536;2023-02-26T10:18:54;102370.94;;;5.70;45.26
59787;BME280;45672;51.612;5.536;2023-02-26T10:21:31;102373.59;;;5.70;45.00
59787;BME280;45672;51.612;5.536;2023-02-26T10:24:04;102373.56;;;5.39;44.68
59787;BME280;45672;51.612;5.536;2023-02-26T10:26:36;102358.88;;;5.17;44.54
59787;BME280;45672;51.612;5.536;2023-02-26T10:34:36;102364.50;;;4.60;46.68
59787;BME280;45672;51.612;5.536;2023-02-26T10:37:42;102373.81;;;4.67;46.66
59787;BME280;45672;51.612;5.536;2023-02-26T10:40:15;102376.38;;;4.51;45.83
59787;BME280;45672;51.612;5.536;2023-02-26T10:42:47;102376.38;;;4.34;47.49
59787;BME280;45672;51.612;5.536;2023-02-26T10:45:29;102380.69;;;4.35;48.04
59787;BME280;45672;51.612;5.536;2023-02-26T10:50:45;102390.50;;;4.13;47.09
59787;BME280;45672;51.612;5.536;2023-02-26T10:53:12;102390.75;;;4.09;47.05
59787;BME280;45672;51.612;5.536;2023-02-26T10:55:45;102383.56;;;4.12;46.30
59787;BME280;45672;51.612;5.536;2023-02-26T10:58:17;102376.47;;;3.95;47.36
59787;BME280;45672;51.612;5.536;2023-02-26T11:00:45;102394.91;;;3.95;48.26
59787;BME280;45672;51.612;5.536;2023-02-26T11:03:18;102388.56;;;4.00;47.81
59787;BME280;45672;51.612;5.536;2023-02-26T11:05:45;102378.38;;;3.92;47.87
59787;BME280;45672;51.612;5.536;2023-02-26T11:08:22;102382.75;;;4.10;46.59
59787;BME280;45672;51.612;5.536;2023-02-26T11:10:54;102384.13;;;3.83;47.71
59787;BME280;45672;51.612;5.536;2023-02-26T11:13:21;102386.94;;;3.97;47.67
59787;BME280;45672;51.612;5.536;2023-02-26T11:15:49;102387.50;;;4.04;45.94
59787;BME280;45672;51.612;5.536;2023-02-26T11:18:19;102386.06;;;3.96;45.87
59787;BME280;45672;51.612;5.536;2023-02-26T11:20:46;102394.28;;;4.08;44.76
59787;BME280;45672;51.612;5.536;2023-02-26T11:23:15;102390.63;;;3.93;44.59
59787;BME280;45672;51.612;5.536;2023-02-26T11:25:41;102403.16;;;3.88;45.43
59787;BME280;45672;51.612;5.536;2023-02-26T11:28:21;102390.59;;;4.12;45.07
59787;BME280;45672;51.612;5.536;2023-02-26T11:30:47;102390.59;;;4.12;45.60
59787;BME280;45672;51.612;5.536;2023-02-26T11:33:36;102387.84;;;4.32;44.60
59787;BME280;45672;51.612;5.536;2023-02-26T11:36:08;102377.13;;;4.18;44.88
59787;BME280;45672;51.612;5.536;2023-02-26T11:38:34;102389.59;;;4.32;44.09
59787;BME280;45672;51.612;5.536;2023-02-26T11:41:00;102390.22;;;4.20;44.36
59787;BME280;45672;51.612;5.536;2023-02-26T11:43:38;102373.19;;;4.27;45.23
59787;BME280;45672;51.612;5.536;2023-02-26T11:46:06;102385.75;;;4.39;43.83
59787;BME280;45672;51.612;5.536;2023-02-26T11:48:44;102369.94;;;4.39;44.92
59787;BME280;45672;51.612;5.536;2023-02-26T11:51:17;102381.84;;;4.29;45.11
59787;BME280;45672;51.612;5.536;2023-02-26T11:53:47;102384.16;;;4.18;43.65
59787;BME280;45672;51.612;5.536;2023-02-26T11:56:42;102373.94;;;4.11;45.63
59787;BME280;45672;51.612;5.536;2023-02-26T11:59:24;102390.91;;;4.23;45.19
59787;BME280;45672;51.612;5.536;2023-02-26T12:01:51;102389.56;;;4.34;43.76
59787;BME280;45672;51.612;5.536;2023-02-26T12:04:22;102377.38;;;3.94;44.88
59787;BME280;45672;51.612;5.536;2023-02-26T12:06:50;102388.84;;;3.93;44.96
59787;BME280;45672;51.612;5.536;2023-02-26T12:09:16;102380.28;;;4.07;44.22
59787;BME280;45672;51.612;5.536;2023-02-26T12:17:15;102366.28;;;4.24;45.23
59787;BME280;45672;51.612;5.536;2023-02-26T12:20:08;102387.59;;;4.37;45.05
59787;BME280;45672;51.612;5.536;2023-02-26T12:22:49;102366.53;;;4.37;45.32
59787;BME280;45672;51.612;5.536;2023-02-26T12:31:25;102370.56;;;4.44;44.36
59787;BME280;45672;51.612;5.536;2023-02-26T12:33:37;102351.09;;;4.64;44.39
59787;BME280;45672;51.612;5.536;2023-02-26T12:36:10;102360.25;;;4.57;44.63
59787;BME280;45672;51.612;5.536;2023-02-26T12:39:02;102364.44;;;4.44;45.18
59787;BME280;45672;51.612;5.536;2023-02-26T12:47:22;102361.94;;;4.58;44.89
59787;BME280;45672;51.612;5.536;2023-02-26T12:55:16;102361.25;;;4.20;45.62
59787;BME280;45672;51.612;5.536;2023-02-26T13:03:29;102359.78;;;4.49;45.56
59787;BME280;45672;51.612;5.536;2023-02-26T13:09:23;102363.66;;;4.59;45.25
59787;BME280;45672;51.612;5.536;2023-02-26T13:11:59;102359.41;;;4.57;44.96
59787;BME280;45672;51.612;5.536;2023-02-26T13:14:56;102358.22;;;4.62;45.20
59787;BME280;45672;51.612;5.536;2023-02-26T13:17:34;102349.38;;;4.46;45.72
59787;BME280;45672;51.612;5.536;2023-02-26T13:20:11;102365.59;;;4.56;46.56
59787;BME280;45672;51.612;5.536;2023-02-26T13:22:50;102358.59;;;4.55;45.52
59787;BME280;45672;51.612;5.536;2023-02-26T13:25:35;102375.75;;;4.63;45.38
59787;BME280;45672;51.612;5.536;2023-02-26T13:31:52;102361.97;;;4.41;44.73
59787;BME280;45672;51.612;5.536;2023-02-26T13:33:53;102363.22;;;4.34;45.43
59787;BME280;45672;51.612;5.536;2023-02-26T13:36:21;102371.44;;;4.45;45.72
59787;BME280;45672;51.612;5.536;2023-02-26T13:44:32;102355.75;;;4.59;46.46
59787;BME280;45672;51.612;5.536;2023-02-26T13:49:54;102356.97;;;4.70;46.22
59787;BME280;45672;51.612;5.536;2023-02-26T13:52:27;102350.28;;;4.80;46.50
59787;BME280;45672;51.612;5.536;2023-02-26T13:54:53;102347.19;;;4.72;46.11
59787;BME280;45672;51.612;5.536;2023-02-26T13:57:33;102351.84;;;4.84;45.46
59787;BME280;45672;51.612;5.536;2023-02-26T14:14:16;102357.28;;;4.81;46.11
59787;BME280;45672;51.612;5.536;2023-02-26T14:19:41;102346.56;;;4.84;46.30
59787;BME280;45672;51.612;5.536;2023-02-26T14:22:17;102337.06;;;4.97;46.36
59787;BME280;45672;51.612;5.536;2023-02-26T14:25:03;102353.41;;;5.04;46.07
59787;BME280;45672;51.612;5.536;2023-02-26T14:27:33;102351.69;;;5.03;44.09
59787;BME280;45672;51.612;5.536;2023-02-26T14:30:14;102349.28;;;4.82;44.30
59787;BME280;45672;51.612;5.536;2023-02-26T14:33:07;102353.00;;;4.78;45.59
59787;BME280;45672;51.612;5.536;2023-02-26T14:35:40;102360.00;;;4.79;46.04
59787;BME280;45672;51.612;5.536;2023-02-26T14:38:25;102359.13;;;4.79;45.55
59787;BME280;45672;51.612;5.536;2023-02-26T14:41:01;102349.91;;;4.70;45.27
59787;BME280;45672;51.612;5.536;2023-02-26T14:43:39;102347.28;;;4.70;45.69
59787;BME280;45672;51.612;5.536;2023-02-26T14:46:06;102359.13;;;4.79;45.37
59787;BME280;45672;51.612;5.536;2023-02-26T14:48:33;102343.69;;;4.89;45.06
59787;BME280;45672;51.612;5.536;2023-02-26T14:51:29;102356.78;;;4.90;46.44
59787;BME280;45672;51.612;5.536;2023-02-26T14:57:03;102362.59;;;4.97;45.85
59787;BME280;45672;51.612;5.536;2023-02-26T15:04:57;102365.59;;;5.07;44.84
59787;BME280;45672;51.612;5.536;2023-02-26T15:10:28;102364.84;;;5.05;45.47
59787;BME280;45672;51.612;5.536;2023-02-26T15:15:56;102376.88;;;4.93;45.31
59787;BME280;45672;51.612;5.536;2023-02-26T15:19:11;102363.59;;;4.94;45.86
59787;BME280;45672;51.612;5.536;2023-02-26T15:24:32;102363.94;;;4.88;47.38
59787;BME280;45672;51.612;5.536;2023-02-26T15:27:01;102361.28;;;4.88;47.04
59787;BME280;45672;51.612;5.536;2023-02-26T15:29:30;102359.38;;;4.92;45.62